createdAt,value
2019-02-27T00:02:17.527Z,8.63
2019-02-27T00:04:49.416Z,8.58
2019-02-27T00:07:20.996Z,8.56
2019-02-27T00:09:59.724Z,8.42
2019-02-27T00:12:28.848Z,8.10
2019-02-27T00:15:02.220Z,8.08
2019-02-27T00:17:31.527Z,8.10
2019-02-27T00:20:04.451Z,8.15
2019-02-27T00:22:31.609Z,8.02
2019-02-27T00:25:02.977Z,8.15
2019-02-27T00:27:31.646Z,8.02
2019-02-27T00:30:04.543Z,7.92
2019-02-27T00:32:34.611Z,7.97
2019-02-27T00:35:07.431Z,7.87
2019-02-27T00:37:39.601Z,7.70
2019-02-27T00:40:09.135Z,7.81
2019-02-27T00:42:43.115Z,7.87
2019-02-27T00:45:12.621Z,7.71
2019-02-27T00:47:41.728Z,7.80
2019-02-27T00:50:16.378Z,7.99
2019-02-27T00:52:50.908Z,7.97
2019-02-27T00:55:16.516Z,7.60
2019-02-27T00:57:45.685Z,7.55
2019-02-27T01:00:17.267Z,7.60
2019-02-27T01:02:47.553Z,7.58
2019-02-27T01:05:17.205Z,7.56
2019-02-27T01:07:54.202Z,7.40
2019-02-27T01:10:24.387Z,7.43
2019-02-27T01:12:58.090Z,7.23
2019-02-27T01:15:27.037Z,7.33
2019-02-27T01:17:57.550Z,7.27
2019-02-27T01:20:32.526Z,7.06
2019-02-27T01:23:04.630Z,7.59
2019-02-27T01:25:35.698Z,7.16
2019-02-27T01:28:11.037Z,7.49
2019-02-27T01:30:40.773Z,6.90
2019-02-27T01:33:11.626Z,6.85
2019-02-27T01:35:40.731Z,6.91
2019-02-27T01:38:11.190Z,6.91
2019-02-27T01:40:44.942Z,6.97
2019-02-27T01:43:14.058Z,6.89
2019-02-27T01:45:44.716Z,6.95
2019-02-27T01:48:16.831Z,6.99
2019-02-27T01:50:48.160Z,7.25
2019-02-27T01:53:16.842Z,6.87
2019-02-27T01:55:46.119Z,7.24
2019-02-27T01:58:15.221Z,7.78
2019-02-27T02:00:46.016Z,7.83
2019-02-27T02:03:15.165Z,7.67
2019-02-27T02:05:44.315Z,7.98
2019-02-27T02:08:14.630Z,7.67
2019-02-27T02:10:44.028Z,7.65
2019-02-27T02:13:20.368Z,7.62
2019-02-27T02:16:34.169Z,7.13
2019-02-27T02:19:33.871Z,7.09
2019-02-27T02:22:28.926Z,6.59
2019-02-27T02:25:34.139Z,6.62
2019-02-27T02:28:43.066Z,6.81
2019-02-27T02:31:41.643Z,6.89
2019-02-27T02:35:06.313Z,7.36
2019-02-27T02:38:21.534Z,7.29
2019-02-27T02:41:13.405Z,7.07
2019-02-27T02:44:11.453Z,6.69
2019-02-27T02:47:24.407Z,6.56
2019-02-27T02:50:32.289Z,6.19
2019-02-27T02:53:39.646Z,6.25
2019-02-27T02:56:24.997Z,6.22
2019-02-27T02:59:29.915Z,6.23
2019-02-27T03:02:34.044Z,6.44
2019-02-27T03:05:40.639Z,6.83
2019-02-27T03:08:36.088Z,7.53
2019-02-27T03:11:37.277Z,7.31
2019-02-27T03:14:33.617Z,7.44
2019-02-27T03:17:53.740Z,7.26
2019-02-27T03:21:09.824Z,7.20
2019-02-27T03:24:12.244Z,6.74
2019-02-27T03:26:54.182Z,6.76
2019-02-27T03:29:53.893Z,6.52
2019-02-27T03:32:50.396Z,6.96
2019-02-27T03:36:03.262Z,6.75
2019-02-27T03:39:05.871Z,6.40
2019-02-27T03:41:47.483Z,6.91
2019-02-27T03:45:06.088Z,6.60
2019-02-27T03:48:06.507Z,6.43
2019-02-27T03:50:49.636Z,6.26
2019-02-27T03:53:58.127Z,6.33
2019-02-27T03:57:03.744Z,6.52
2019-02-27T04:00:19.773Z,6.56
2019-02-27T04:03:07.763Z,1.45
2019-02-27T04:06:10.699Z,6.35
2019-02-27T04:08:55.600Z,6.24
2019-02-27T04:11:26.876Z,6.14
2019-02-27T04:14:03.328Z,6.15
2019-02-27T04:16:33.212Z,5.97
2019-02-27T04:19:05.164Z,5.73
2019-02-27T04:21:34.849Z,5.81
2019-02-27T04:24:06.601Z,5.99
2019-02-27T04:26:41.595Z,5.91
2019-02-27T04:29:09.510Z,5.68
2019-02-27T04:31:40.469Z,5.75
2019-02-27T04:34:12.776Z,0.22
2019-02-27T04:36:42.013Z,5.73
2019-02-27T04:39:11.190Z,5.60
2019-02-27T04:41:41.459Z,5.76
2019-02-27T04:44:13.674Z,5.86
2019-02-27T04:46:45.749Z,5.84
2019-02-27T04:49:17.759Z,5.94
2019-02-27T04:51:51.156Z,5.98
2019-02-27T04:54:20.271Z,5.81
2019-02-27T04:56:49.390Z,5.82
2019-02-27T04:59:20.303Z,5.90
2019-02-27T05:01:49.472Z,6.03
2019-02-27T05:04:18.592Z,6.06
2019-02-27T05:06:47.837Z,6.00
2019-02-27T05:09:16.908Z,6.14
2019-02-27T05:11:49.406Z,6.22
2019-02-27T05:14:21.652Z,6.19
2019-02-27T05:16:50.900Z,6.10
2019-02-27T05:19:20.049Z,5.71
2019-02-27T05:21:52.272Z,5.78
2019-02-27T05:24:20.005Z,5.66
2019-02-27T05:26:49.461Z,5.84
2019-02-27T05:29:19.108Z,5.55
2019-02-27T05:31:52.864Z,5.63
2019-02-27T05:34:19.255Z,5.63
2019-02-27T05:36:48.420Z,5.63
2019-02-27T05:39:18.012Z,5.60
2019-02-27T05:41:50.648Z,5.71
2019-02-27T05:44:24.015Z,5.89
2019-02-27T05:46:54.834Z,5.68
2019-02-27T05:49:38.471Z,5.18
2019-02-27T05:52:11.885Z,5.54
2019-02-27T05:54:40.173Z,5.51
2019-02-27T05:57:10.053Z,5.38
2019-02-27T05:59:39.137Z,5.39
2019-02-27T06:02:11.028Z,5.44
2019-02-27T06:04:41.233Z,5.51
2019-02-27T06:07:11.471Z,5.39
2019-02-27T06:09:43.852Z,5.38
2019-02-27T06:12:16.277Z,5.33
2019-02-27T06:14:45.535Z,3.46
2019-02-27T06:17:14.787Z,5.23
2019-02-27T06:19:47.373Z,5.54
2019-02-27T06:22:16.449Z,5.16
2019-02-27T06:24:46.392Z,-4.47
2019-02-27T06:27:15.866Z,5.50
2019-02-27T06:29:48.611Z,5.30
2019-02-27T06:32:18.190Z,5.39
2019-02-27T06:34:47.534Z,5.69
2019-02-27T06:37:16.844Z,5.90
2019-02-27T06:39:46.897Z,6.22
2019-02-27T06:42:17.292Z,3.81
2019-02-27T06:44:48.272Z,6.22
2019-02-27T06:47:20.699Z,6.20
2019-02-27T06:49:51.961Z,6.33
2019-02-27T06:52:23.127Z,5.89
2019-02-27T06:54:52.853Z,5.85
2019-02-27T06:57:26.786Z,6.07
2019-02-27T07:00:02.182Z,6.00
2019-02-27T07:02:27.434Z,6.17
2019-02-27T07:04:56.552Z,6.38
2019-02-27T07:07:28.811Z,6.30
2019-02-27T07:10:02.356Z,6.54
2019-02-27T07:12:35.239Z,6.55
2019-02-27T07:15:10.257Z,6.62
2019-02-27T07:17:58.752Z,7.05
2019-02-27T07:20:29.751Z,6.73
2019-02-27T07:23:02.507Z,6.69
2019-02-27T07:25:30.325Z,6.95
2019-02-27T07:28:03.571Z,7.34
2019-02-27T07:30:39.803Z,7.20
2019-02-27T07:33:10.201Z,7.12
2019-02-27T07:35:46.006Z,7.16
2019-02-27T07:38:22.688Z,7.31
2019-02-27T07:40:51.914Z,7.53
2019-02-27T07:43:21.226Z,7.76
2019-02-27T07:45:54.375Z,7.73
2019-02-27T07:48:27.137Z,7.85
2019-02-27T07:50:58.654Z,7.71
2019-02-27T07:53:27.792Z,8.04
2019-02-27T07:55:56.976Z,8.43
2019-02-27T07:58:29.288Z,8.35
2019-02-27T08:00:57.395Z,8.62
2019-02-27T08:03:26.661Z,9.03
2019-02-27T08:05:55.976Z,9.25
2019-02-27T08:08:25.530Z,9.10
2019-02-27T08:11:03.475Z,9.49
2019-02-27T08:13:32.662Z,9.65
2019-02-27T08:16:02.311Z,10.04
2019-02-27T08:18:36.640Z,10.12
2019-02-27T08:21:05.675Z,10.29
2019-02-27T08:23:36.360Z,10.46
2019-02-27T08:26:15.964Z,10.43
2019-02-27T08:28:45.678Z,10.06
2019-02-27T08:31:18.145Z,10.20
2019-02-27T08:33:49.798Z,10.39
2019-02-27T08:36:20.234Z,10.75
2019-02-27T08:38:51.056Z,11.45
2019-02-27T08:41:20.423Z,11.65
2019-02-27T08:43:53.751Z,12.43
2019-02-27T08:46:26.170Z,12.03
2019-02-27T08:48:56.970Z,12.02
2019-02-27T08:51:30.606Z,12.39
2019-02-27T08:54:04.704Z,12.59
2019-02-27T08:56:36.302Z,12.51
2019-02-27T08:59:06.107Z,12.52
2019-02-27T09:01:42.825Z,13.29
2019-02-27T09:04:13.811Z,13.74
2019-02-27T09:06:44.169Z,13.82
2019-02-27T09:09:15.005Z,13.72
2019-02-27T09:11:47.219Z,14.29
2019-02-27T09:14:16.617Z,14.69
2019-02-27T09:16:46.652Z,13.97
2019-02-27T09:19:15.905Z,13.70
2019-02-27T09:21:45.114Z,13.59
2019-02-27T09:24:15.014Z,13.94
2019-02-27T09:26:44.827Z,14.66
2019-02-27T09:29:19.278Z,14.17
2019-02-27T09:31:51.008Z,13.77
2019-02-27T09:34:26.621Z,14.15
2019-02-27T09:36:57.881Z,14.41
2019-02-27T09:39:31.866Z,14.55
2019-02-27T09:42:02.803Z,13.09
2019-02-27T09:44:36.342Z,14.01
2019-02-27T09:47:06.407Z,14.36
2019-02-27T09:49:38.033Z,14.59
2019-02-27T09:52:18.784Z,15.11
2019-02-27T09:54:49.250Z,15.73
2019-02-27T09:57:22.291Z,15.09
2019-02-27T09:59:54.249Z,15.48
2019-02-27T10:02:25.236Z,15.18
2019-02-27T10:04:55.411Z,16.04
2019-02-27T10:07:26.807Z,16.51
2019-02-27T10:10:01.534Z,16.70
2019-02-27T10:12:30.649Z,16.50
2019-02-27T10:15:01.513Z,17.03
2019-02-27T10:17:35.152Z,16.58
2019-02-27T10:20:09.144Z,16.49
2019-02-27T10:22:39.426Z,15.89
2019-02-27T10:25:13.938Z,16.43
2019-02-27T10:27:47.359Z,17.31
2019-02-27T10:30:16.918Z,17.51
2019-02-27T10:32:47.629Z,17.71
2019-02-27T10:35:16.845Z,18.00
2019-02-27T10:37:50.396Z,17.48
2019-02-27T10:40:25.078Z,17.70
2019-02-27T10:42:54.177Z,17.40
2019-02-27T10:45:25.044Z,17.48
2019-02-27T10:47:54.156Z,17.59
2019-02-27T10:50:24.146Z,17.99
2019-02-27T10:52:53.372Z,18.18
2019-02-27T10:55:22.710Z,17.24
2019-02-27T10:57:52.469Z,17.60
2019-02-27T11:00:26.242Z,18.35
2019-02-27T11:02:56.895Z,18.53
2019-02-27T11:05:26.508Z,18.24
2019-02-27T11:07:56.088Z,18.38
2019-02-27T11:10:26.667Z,18.23
2019-02-27T11:12:56.494Z,18.13
2019-02-27T11:15:26.196Z,18.91
2019-02-27T11:17:55.867Z,18.61
2019-02-27T11:20:26.748Z,18.71
2019-02-27T11:22:58.862Z,19.21
2019-02-27T11:25:28.201Z,18.91
2019-02-27T11:27:58.891Z,10.45
2019-02-27T11:30:36.820Z,18.50
2019-02-27T11:33:08.068Z,18.79
2019-02-27T11:35:38.824Z,19.00
2019-02-27T11:38:13.231Z,18.99
2019-02-27T11:40:42.976Z,18.82
2019-02-27T11:43:14.019Z,18.87
2019-02-27T11:45:43.571Z,18.56
2019-02-27T11:48:12.842Z,18.84
2019-02-27T11:50:45.110Z,18.94
2019-02-27T11:53:14.259Z,19.27
2019-02-27T11:55:47.159Z,19.14
2019-02-27T11:58:19.796Z,18.99
2019-02-27T12:00:48.997Z,19.53
2019-02-27T12:03:18.193Z,19.46
2019-02-27T12:05:47.340Z,19.50
2019-02-27T12:08:22.458Z,19.64
2019-02-27T12:10:54.535Z,19.60
2019-02-27T12:13:28.493Z,19.87
2019-02-27T12:16:00.829Z,20.15
2019-02-27T12:18:34.545Z,19.78
2019-02-27T12:21:07.186Z,20.08
2019-02-27T12:23:44.173Z,19.80
2019-02-27T12:26:12.569Z,20.09
2019-02-27T12:28:41.927Z,20.32
2019-02-27T12:31:14.230Z,20.09
2019-02-27T12:33:43.128Z,20.09
2019-02-27T12:36:16.125Z,20.12
2019-02-27T12:38:46.931Z,20.35
2019-02-27T12:41:19.134Z,20.36
2019-02-27T12:44:05.029Z,20.41
2019-02-27T12:46:37.071Z,20.48
2019-02-27T12:49:06.390Z,19.79
2019-02-27T12:52:00.383Z,20.02
2019-02-27T12:54:29.971Z,20.32
2019-02-27T12:57:03.131Z,20.74
2019-02-27T12:59:39.770Z,20.62
2019-02-27T13:02:12.990Z,20.85
2019-02-27T13:04:42.350Z,20.91
2019-02-27T13:07:11.747Z,20.79
2019-02-27T13:09:43.934Z,20.68
2019-02-27T13:12:17.382Z,20.80
2019-02-27T13:14:48.479Z,21.28
2019-02-27T13:17:18.131Z,21.37
2019-02-27T13:19:48.442Z,21.19
2019-02-27T13:22:26.321Z,21.13
2019-02-27T13:24:56.135Z,21.02
2019-02-27T13:27:27.194Z,21.02
2019-02-27T13:30:08.803Z,21.44
2019-02-27T13:32:32.065Z,21.42
2019-02-27T13:35:02.860Z,21.59
2019-02-27T13:37:32.341Z,21.71
2019-02-27T13:40:01.612Z,21.76
2019-02-27T13:42:31.512Z,21.73
2019-02-27T13:45:00.833Z,21.92
2019-02-27T13:47:32.705Z,22.09
2019-02-27T13:50:04.920Z,22.25
2019-02-27T13:52:35.890Z,22.31
2019-02-27T13:55:10.883Z,22.70
2019-02-27T13:57:38.894Z,22.32
2019-02-27T14:00:11.777Z,22.31
2019-02-27T14:02:40.956Z,22.36
2019-02-27T14:05:10.161Z,13.83
2019-02-27T14:07:39.314Z,22.20
2019-02-27T14:10:16.688Z,22.01
2019-02-27T14:12:46.000Z,21.92
2019-02-27T14:15:26.954Z,21.85
2019-02-27T14:17:53.335Z,22.16
2019-02-27T14:20:27.119Z,21.95
2019-02-27T14:22:55.637Z,22.08
2019-02-27T14:25:31.237Z,22.20
2019-02-27T14:27:56.923Z,22.18
2019-02-27T14:30:37.787Z,22.08
2019-02-27T14:33:07.978Z,22.14
2019-02-27T14:35:37.225Z,22.30
2019-02-27T14:38:11.785Z,22.05
2019-02-27T14:40:41.391Z,22.49
2019-02-27T14:43:12.387Z,22.33
2019-02-27T14:45:44.342Z,22.48
2019-02-27T14:48:13.567Z,22.60
2019-02-27T14:50:45.598Z,22.52
2019-02-27T14:53:16.544Z,22.17
2019-02-27T14:55:48.585Z,22.27
2019-02-27T14:58:17.768Z,22.20
2019-02-27T15:00:47.875Z,22.42
2019-02-27T15:03:17.167Z,22.55
2019-02-27T15:05:52.180Z,22.19
2019-02-27T15:08:21.426Z,22.30
2019-02-27T15:10:50.663Z,22.21
2019-02-27T15:13:21.068Z,22.33
2019-02-27T15:15:50.239Z,22.21
2019-02-27T15:18:22.521Z,21.91
2019-02-27T15:20:51.130Z,21.81
2019-02-27T15:23:24.577Z,21.71
2019-02-27T15:26:00.894Z,21.46
2019-02-27T15:28:33.365Z,21.77
2019-02-27T15:31:04.432Z,21.66
2019-02-27T15:33:40.591Z,21.58
2019-02-27T15:36:10.192Z,21.78
2019-02-27T15:38:39.324Z,21.66
2019-02-27T15:41:08.693Z,21.60
2019-02-27T15:43:38.648Z,21.23
2019-02-27T15:46:09.007Z,21.43
2019-02-27T15:48:40.928Z,21.18
2019-02-27T15:51:12.388Z,21.16
2019-02-27T15:53:41.639Z,21.51
2019-02-27T15:56:12.227Z,21.36
2019-02-27T15:58:45.858Z,21.28
2019-02-27T16:01:14.902Z,21.09
2019-02-27T16:03:46.646Z,21.28
2019-02-27T16:06:21.435Z,21.19
2019-02-27T16:08:58.256Z,21.17
2019-02-27T16:11:33.115Z,21.28
2019-02-27T16:14:09.132Z,21.08
2019-02-27T16:16:33.201Z,19.44
2019-02-27T16:19:02.460Z,21.21
2019-02-27T16:21:31.819Z,21.32
2019-02-27T16:24:03.476Z,21.37
2019-02-27T16:26:32.610Z,21.38
2019-02-27T16:29:01.768Z,21.25
2019-02-27T16:31:32.624Z,21.20
2019-02-27T16:34:03.891Z,21.14
2019-02-27T16:36:36.157Z,21.09
2019-02-27T16:39:09.653Z,20.97
2019-02-27T16:41:39.164Z,20.81
2019-02-27T16:44:11.069Z,12.20
2019-02-27T16:46:44.700Z,20.46
2019-02-27T16:49:11.965Z,20.15
2019-02-27T16:51:43.100Z,20.26
2019-02-27T16:54:12.205Z,20.28
2019-02-27T16:56:46.580Z,20.13
2019-02-27T16:59:12.378Z,20.01
2019-02-27T17:01:42.791Z,19.52
2019-02-27T17:04:15.801Z,19.37
2019-02-27T17:06:49.184Z,19.51
2019-02-27T17:09:23.664Z,19.34
2019-02-27T17:11:49.823Z,18.93
2019-02-27T17:14:21.121Z,19.25
2019-02-27T17:16:49.761Z,19.24
2019-02-27T17:19:18.908Z,19.09
2019-02-27T17:21:48.749Z,18.99
2019-02-27T17:24:21.781Z,18.39
2019-02-27T17:26:49.193Z,18.37
2019-02-27T17:29:19.443Z,18.32
2019-02-27T17:31:55.289Z,18.28
2019-02-27T17:34:21.063Z,18.19
2019-02-27T17:36:50.240Z,18.22
2019-02-27T17:39:22.230Z,18.06
2019-02-27T17:41:53.107Z,17.88
2019-02-27T17:44:25.100Z,17.73
2019-02-27T17:46:57.737Z,17.59
2019-02-27T17:49:30.473Z,17.50
2019-02-27T17:51:59.572Z,17.47
2019-02-27T17:54:31.524Z,17.40
2019-02-27T17:56:59.684Z,17.32
2019-02-27T17:59:28.804Z,17.20
2019-02-27T18:01:58.745Z,17.09
2019-02-27T18:04:36.818Z,17.00
2019-02-27T18:07:06.277Z,16.95
2019-02-27T18:09:40.339Z,16.81
2019-02-27T18:12:08.066Z,16.84
2019-02-27T18:14:43.911Z,16.75
2019-02-27T18:17:11.200Z,16.70
2019-02-27T18:19:41.786Z,16.60
2019-02-27T18:22:14.689Z,16.51
2019-02-27T18:24:46.785Z,16.35
2019-02-27T18:27:19.159Z,16.29
2019-02-27T18:29:48.487Z,15.66
2019-02-27T18:32:19.547Z,15.98
2019-02-27T18:34:48.649Z,16.04
2019-02-27T18:37:19.997Z,16.03
2019-02-27T18:39:52.611Z,15.85
2019-02-27T18:42:21.760Z,15.88
2019-02-27T18:44:56.057Z,6.25
2019-02-27T18:47:22.926Z,15.67
2019-02-27T18:49:53.020Z,15.45
2019-02-27T18:52:22.326Z,15.39
2019-02-27T18:54:54.692Z,15.57
2019-02-27T18:57:23.347Z,15.53
2019-02-27T18:59:53.367Z,15.45
2019-02-27T19:02:23.586Z,15.40
2019-02-27T19:04:55.709Z,15.45
2019-02-27T19:07:26.713Z,15.42
2019-02-27T19:09:55.980Z,14.68
2019-02-27T19:12:28.514Z,15.04
2019-02-27T19:14:56.591Z,14.39
2019-02-27T19:17:31.517Z,14.16
2019-02-27T19:19:57.889Z,13.91
2019-02-27T19:22:27.056Z,12.95
2019-02-27T19:24:59.887Z,12.61
2019-02-27T19:27:28.267Z,12.49
2019-02-27T19:30:00.378Z,12.07
2019-02-27T19:32:32.876Z,12.18
2019-02-27T19:35:02.569Z,11.91
2019-02-27T19:37:32.106Z,12.11
2019-02-27T19:40:03.261Z,12.09
2019-02-27T19:42:32.751Z,12.08
2019-02-27T19:45:05.367Z,12.21
2019-02-27T19:47:34.584Z,12.14
2019-02-27T19:50:08.540Z,12.18
2019-02-27T19:52:41.861Z,12.49
2019-02-27T19:55:15.732Z,12.24
2019-02-27T19:57:45.070Z,12.11
2019-02-27T20:00:21.681Z,11.99
2019-02-27T20:02:55.163Z,12.00
2019-02-27T20:05:22.789Z,12.82
2019-02-27T20:07:54.082Z,12.53
2019-02-27T20:10:22.936Z,12.77
2019-02-27T20:12:53.967Z,11.95
2019-02-27T20:15:24.935Z,11.79
2019-02-27T20:18:00.072Z,11.64
2019-02-27T20:20:30.324Z,11.58
2019-02-27T20:23:02.490Z,11.46
2019-02-27T20:25:32.889Z,11.48
2019-02-27T20:28:02.370Z,11.20
2019-02-27T20:30:33.330Z,11.42
2019-02-27T20:33:03.238Z,11.39
2019-02-27T20:35:33.037Z,11.36
2019-02-27T20:38:04.020Z,11.15
2019-02-27T20:40:36.896Z,11.36
2019-02-27T20:43:05.991Z,11.09
2019-02-27T20:45:35.174Z,10.92
2019-02-27T20:48:05.210Z,10.85
2019-02-27T20:50:37.097Z,10.67
2019-02-27T20:53:06.504Z,10.42
2019-02-27T20:55:35.697Z,10.42
2019-02-27T20:58:07.922Z,10.39
2019-02-27T21:00:42.157Z,10.76
2019-02-27T21:03:13.369Z,10.41
2019-02-27T21:05:42.533Z,10.52
2019-02-27T21:08:15.787Z,10.55
2019-02-27T21:10:47.621Z,10.87
2019-02-27T21:13:20.160Z,11.11
2019-02-27T21:15:49.357Z,10.86
2019-02-27T21:18:19.985Z,10.80
2019-02-27T21:20:57.348Z,10.88
2019-02-27T21:23:31.886Z,10.75
2019-02-27T21:26:00.655Z,10.31
2019-02-27T21:28:29.854Z,10.31
2019-02-27T21:30:59.013Z,10.30
2019-02-27T21:33:31.165Z,10.35
2019-02-27T21:36:21.020Z,10.29
2019-02-27T21:38:51.514Z,10.09
2019-02-27T21:41:25.509Z,9.75
2019-02-27T21:43:58.281Z,9.67
2019-02-27T21:46:28.673Z,9.81
2019-02-27T21:49:02.980Z,9.57
2019-02-27T21:51:37.582Z,9.51
2019-02-27T21:54:06.793Z,9.80
2019-02-27T21:56:35.888Z,9.65
2019-02-27T21:59:05.757Z,9.70
2019-02-27T22:01:34.957Z,9.59
2019-02-27T22:04:09.667Z,9.65
2019-02-27T22:06:42.632Z,9.40
2019-02-27T22:09:14.965Z,9.44
2019-02-27T22:11:44.214Z,9.30
2019-02-27T22:14:16.740Z,9.15
2019-02-27T22:16:46.493Z,9.15
2019-02-27T22:19:18.905Z,8.99
2019-02-27T22:21:51.201Z,9.00
2019-02-27T22:24:20.999Z,8.94
2019-02-27T22:26:53.239Z,8.89
2019-02-27T22:29:25.187Z,9.01
2019-02-27T22:31:57.745Z,8.69
2019-02-27T22:34:27.750Z,8.87
2019-02-27T22:36:57.778Z,8.89
2019-02-27T22:39:31.690Z,8.95
2019-02-27T22:42:21.353Z,8.81
2019-02-27T22:44:56.608Z,8.91
2019-02-27T22:47:25.788Z,8.88
2019-02-27T22:49:54.900Z,8.80
2019-02-27T22:52:30.296Z,8.55
2019-02-27T22:55:02.823Z,8.66
2019-02-27T22:57:35.859Z,8.73
2019-02-27T23:00:13.594Z,8.68
2019-02-27T23:02:47.134Z,-0.68
2019-02-27T23:05:16.267Z,8.77
2019-02-27T23:07:48.116Z,8.67
2019-02-27T23:10:18.250Z,8.74
2019-02-27T23:12:47.858Z,8.52
2019-02-27T23:15:18.696Z,8.33
2019-02-27T23:17:47.834Z,8.42
2019-02-27T23:20:20.849Z,8.25
2019-02-27T23:22:51.643Z,8.37
2019-02-27T23:25:20.764Z,8.14
2019-02-27T23:27:51.455Z,8.54
2019-02-27T23:30:20.777Z,8.38
2019-02-27T23:32:49.913Z,8.59
2019-02-27T23:35:21.414Z,8.58
2019-02-27T23:37:52.379Z,8.49
2019-02-27T23:40:21.501Z,8.59
2019-02-27T23:42:52.422Z,8.47
2019-02-27T23:45:23.184Z,8.41
2019-02-27T23:47:52.386Z,8.54
2019-02-27T23:50:21.523Z,8.29
2019-02-27T23:52:53.253Z,8.47
2019-02-27T23:55:25.689Z,8.29
2019-02-27T23:57:57.927Z,8.44
